Tilbury, Canada
Current Conditions -  °F | °C
As of 10:00 PM on Tuesday 21 Oct 2014 (Local Time) from CYCK Reporting Station
Overcast Overcast  
Wind Chill: 38°   Ceiling: 1600
Heat Index: 45°   Visibility: 9mi
Dew Point: 41°   Wind: 14mph
Humidity: 87%   Direction: 10°N
Pressure: 30.14"   Gusts: 21mph
Location:  42.25°N, 82.43°W
Report Text: CYCK 220200Z AUTO 01012G18KT 9SM OVC016 07/05 A3014 RMK SLP211
Loading
Personal Weather Stations






























Interactive Weather Map
Tropical Storm Tracking
New forecast layout! Learn more

10-Day Weather Forecast

Advertisements
Track Severe Weather on mobile